Time;durP1;ratioP1;P1;durP2;ratioP2;P2;SDS_P1;SDS_P2;PMS_P1;PMS_P2;Temp;Humidity;BMP_temperature;BMP_pressure;BME280_temperature;BME280_humidity;BME280_pressure;Samples;Min_cycle;Max_cycle;Signal;HPM_P1;HPM_P2
2022/06/21 05:01:35;;;;;;;3.93;1.27;;;17.20;78.80;;;;;;5952167;23;20153;-78
2022/06/21 05:04:06;;;;;;;3.53;1.35;;;17.40;79.30;;;;;;4944138;29;20341;-76
2022/06/21 05:06:32;;;;;;;2.97;1.15;;;17.50;77.70;;;;;;4947278;29;20063;-78
2022/06/21 05:08:58;;;;;;;3.70;1.48;;;17.40;77.10;;;;;;4945118;29;20090;-76
2022/06/21 05:11:24;;;;;;;5.63;1.40;;;17.50;78.10;;;;;;4946920;29;20035;-75
2022/06/21 05:13:55;;;;;;;4.63;1.55;;;17.60;77.10;;;;;;4946786;29;20050;-76
2022/06/21 05:16:21;;;;;;;4.50;1.77;;;17.80;76.40;;;;;;4946530;29;20046;-75
2022/06/21 05:18:51;;;;;;;5.90;1.70;;;17.90;75.60;;;;;;4946772;29;20020;-77
2022/06/21 05:21:23;;;;;;;5.72;1.60;;;17.90;75.40;;;;;;4945408;29;20036;-77
2022/06/21 05:23:49;;;;;;;6.38;1.60;;;17.80;77.30;;;;;;4946840;29;20032;-77
2022/06/21 05:26:23;;;;;;;6.68;2.00;;;17.80;76.00;;;;;;4946498;29;20032;-78
2022/06/21 05:29:00;;;;;;;4.53;1.60;;;17.90;76.90;;;;;;4945741;29;20047;-78
2022/06/21 05:31:30;;;;;;;5.07;1.67;;;17.90;74.70;;;;;;4946114;29;20329;-78
2022/06/21 05:34:05;;;;;;;5.85;1.60;;;18.00;75.70;;;;;;4946362;29;20032;-78
2022/06/21 05:36:36;;;;;;;4.28;1.48;;;18.50;75.30;;;;;;4946849;29;20031;-77
2022/06/21 05:39:25;;;;;;;6.65;1.48;;;18.80;72.60;;;;;;4946149;29;20031;-78
2022/06/21 05:41:55;;;;;;;4.10;1.15;;;19.00;71.40;;;;;;4928650;29;20047;-77
2022/06/21 05:44:34;;;;;;;4.28;1.10;;;19.00;70.90;;;;;;4945786;29;20098;-77
2022/06/21 05:47:22;;;;;;;3.55;1.50;;;19.30;71.10;;;;;;4945676;29;20046;-77
2022/06/21 05:49:49;;;;;;;;;;;19.70;69.90;;;;;;4946730;29;20035;-77
2022/06/21 05:52:23;;;;;;;4.07;1.55;;;20.00;68.20;;;;;;4945946;29;19954;-76
2022/06/21 05:54:58;;;;;;;4.28;1.23;;;20.00;67.20;;;;;;4946210;29;20050;-79
2022/06/21 05:57:31;;;;;;;5.05;1.42;;;19.80;67.60;;;;;;4945920;29;20024;-78
2022/06/21 05:59:59;;;;;;;3.17;1.17;;;19.70;68.20;;;;;;4946355;29;20047;-76
2022/06/21 06:02:45;;;;;;;;;;;19.60;67.80;;;;;;4942679;29;20047;-78
2022/06/21 06:05:20;;;;;;;3.88;1.38;;;19.60;68.60;;;;;;4926906;29;19936;-76
2022/06/21 06:07:55;;;;;;;4.05;1.35;;;19.50;68.60;;;;;;4926005;29;20039;-76
2022/06/21 06:10:23;;;;;;;3.03;1.23;;;19.40;68.10;;;;;;4925284;29;20032;-76
2022/06/21 06:12:55;;;;;;;4.03;1.42;;;19.50;68.10;;;;;;4932125;29;20087;-76
2022/06/21 06:15:29;;;;;;;3.03;0.93;;;19.40;68.30;;;;;;4933718;29;20035;-77
2022/06/21 06:18:02;;;;;;;4.63;1.23;;;19.40;69.20;;;;;;4922604;29;20349;-76
2022/06/21 06:20:48;;;;;;;4.47;1.23;;;19.20;70.00;;;;;;4925672;29;20107;-76
2022/06/21 06:23:22;;;;;;;5.15;1.52;;;19.00;70.70;;;;;;4924867;29;20314;-76
2022/06/21 06:26:04;;;;;;;3.70;1.50;;;19.00;71.10;;;;;;4925831;29;20035;-76
2022/06/21 06:28:52;;;;;;;4.07;1.60;;;18.90;71.70;;;;;;4937665;29;20221;-76
2022/06/21 06:31:41;;;;;;;6.03;1.40;;;19.00;71.10;;;;;;4944465;29;20105;-76
2022/06/21 06:34:14;;;;;;;2.60;1.20;;;19.00;71.40;;;;;;4945028;29;20051;-76
2022/06/21 06:37:05;;;;;;;4.53;1.25;;;19.00;70.90;;;;;;4941858;29;20040;-76
2022/06/21 06:39:34;;;;;;;4.07;1.20;;;19.20;70.90;;;;;;4904182;29;20047;-76
2022/06/21 06:42:12;;;;;;;4.55;1.45;;;19.30;71.30;;;;;;4925679;29;20140;-77
2022/06/21 06:44:42;;;;;;;6.57;1.50;;;19.50;69.70;;;;;;4928056;29;20087;-76
2022/06/21 06:47:36;;;;;;;3.67;1.05;;;19.70;69.50;;;;;;4929048;29;20060;-76
2022/06/21 06:50:07;;;;;;;4.03;1.40;;;19.80;69.00;;;;;;4896188;29;20032;-76
2022/06/21 06:52:39;;;;;;;5.22;1.27;;;19.90;69.20;;;;;;4932139;29;20028;-76
2022/06/21 06:55:14;;;;;;;5.68;1.30;;;20.10;67.80;;;;;;4912486;29;20039;-76
2022/06/21 06:58:01;;;;;;;4.75;1.13;;;20.20;68.90;;;;;;4926104;29;20035;-78
2022/06/21 07:00:36;;;;;;;4.13;1.55;;;20.50;66.70;;;;;;4924169;29;20103;-78
2022/06/21 07:03:11;;;;;;;6.18;1.45;;;20.70;66.80;;;;;;4923115;29;20332;-77
2022/06/21 07:05:50;;;;;;;6.28;1.73;;;20.90;67.00;;;;;;4924023;29;20349;-76
2022/06/21 07:08:41;;;;;;;3.45;1.48;;;21.00;65.80;;;;;;4923466;29;20058;-76
2022/06/21 07:11:39;;;;;;;4.88;1.40;;;21.30;65.80;;;;;;4923811;29;20028;-77
2022/06/21 07:14:15;;;;;;;4.47;1.40;;;21.40;65.70;;;;;;4923516;29;20339;-76
2022/06/21 07:16:41;;;;;;;7.15;1.42;;;21.50;65.10;;;;;;4922231;29;20135;-78
2022/06/21 07:19:10;;;;;;;4.50;1.35;;;21.60;64.40;;;;;;4910576;29;20373;-75
2022/06/21 07:21:37;;;;;;;4.30;1.35;;;21.70;64.70;;;;;;4908458;29;20351;-76
2022/06/21 07:24:08;;;;;;;4.38;1.40;;;21.90;63.90;;;;;;4900460;29;20071;-75
2022/06/21 07:26:46;;;;;;;3.40;1.17;;;22.10;63.50;;;;;;4902489;29;20124;-76
2022/06/21 07:29:26;;;;;;;4.97;1.08;;;22.50;63.40;;;;;;4883871;29;20116;-76
2022/06/21 07:31:58;;;;;;;4.13;1.60;;;22.80;62.60;;;;;;4884087;29;20117;-75
2022/06/21 07:34:33;;;;;;;4.20;1.13;;;22.50;62.10;;;;;;4890306;29;20064;-76
2022/06/21 07:37:06;;;;;;;2.78;1.20;;;22.50;62.40;;;;;;4903063;29;20112;-75
2022/06/21 07:39:50;;;;;;;3.25;0.95;;;22.50;61.90;;;;;;4903117;29;20373;-77
2022/06/21 07:42:31;;;;;;;5.68;1.45;;;22.80;63.00;;;;;;4902629;29;20071;-76
2022/06/21 07:45:26;;;;;;;3.60;1.08;;;23.00;60.80;;;;;;4906662;29;20075;-75
2022/06/21 07:48:10;;;;;;;3.78;1.30;;;23.10;61.80;;;;;;4906299;29;20044;-77
2022/06/21 07:50:45;;;;;;;4.80;1.40;;;23.20;62.00;;;;;;4906478;29;20045;-76
2022/06/21 07:53:18;;;;;;;3.97;1.15;;;23.50;61.50;;;;;;4905997;29;20111;-76
2022/06/21 07:55:53;;;;;;;4.65;1.02;;;23.40;61.50;;;;;;4922767;29;20248;-74
2022/06/21 07:58:45;;;;;;;3.90;1.48;;;23.20;61.40;;;;;;4927450;29;20036;-76
2022/06/21 08:07:17;;;;;;;5.47;1.40;;;22.80;62.60;;;;;;4945464;29;20155;-74
2022/06/21 08:09:50;;;;;;;3.45;1.17;;;23.10;61.90;;;;;;4946381;29;20055;-75
2022/06/21 08:12:16;;;;;;;4.05;1.13;;;23.00;62.00;;;;;;4945632;29;20036;-74
2022/06/21 08:14:43;;;;;;;6.45;1.50;;;22.90;62.60;;;;;;4945901;29;20068;-75
2022/06/21 08:17:16;;;;;;;4.30;1.25;;;22.60;62.90;;;;;;4944707;29;20321;-75
2022/06/21 08:20:01;;;;;;;4.18;1.00;;;22.30;64.10;;;;;;4946349;29;20114;-74
2022/06/21 08:22:32;;;;;;;5.25;1.30;;;22.20;64.50;;;;;;4913574;29;20036;-76
2022/06/21 08:25:07;;;;;;;3.30;1.25;;;22.30;64.30;;;;;;4909961;29;20270;-75
2022/06/21 08:27:46;;;;;;;4.57;1.33;;;22.40;64.70;;;;;;4940358;29;20042;-75
2022/06/21 08:30:38;;;;;;;4.40;1.20;;;22.40;64.50;;;;;;4927698;28;20288;-74
2022/06/21 08:33:33;;;;;;;4.78;1.35;;;22.50;64.20;;;;;;4928851;29;20047;-76
2022/06/21 08:36:22;;;;;;;4.50;1.23;;;22.60;64.80;;;;;;4930147;29;20048;-74
2022/06/21 08:39:04;;;;;;;3.42;1.38;;;22.80;64.30;;;;;;4926384;29;20050;-75
2022/06/21 08:41:57;;;;;;;5.07;1.88;;;22.70;64.30;;;;;;4926085;29;20027;-75
2022/06/21 08:48:09;;;;;;;3.20;1.10;;;22.80;64.50;;;;;;4868178;29;20040;-76
2022/06/21 08:51:05;;;;;;;8.50;1.40;;;23.10;64.60;;;;;;4926686;29;20068;-75
2022/06/21 08:53:31;;;;;;;3.28;1.40;;;23.50;64.00;;;;;;4925858;29;20193;-75
2022/06/21 08:56:10;;;;;;;2.70;1.20;;;23.40;63.60;;;;;;4924923;29;20060;-77
2022/06/21 08:58:55;;;;;;;5.20;1.48;;;23.30;63.70;;;;;;4926140;29;20091;-77
2022/06/21 09:01:38;;;;;;;4.40;1.30;;;23.30;64.00;;;;;;4925294;29;20040;-77
2022/06/21 09:04:18;;;;;;;6.45;1.58;;;23.30;63.90;;;;;;4938504;29;20047;-77
2022/06/21 09:06:47;;;;;;;7.38;1.52;;;23.20;64.90;;;;;;4945010;29;20031;-76
2022/06/21 09:09:35;;;;;;;4.65;1.42;;;23.10;65.50;;;;;;4906258;29;20027;-76
2022/06/21 09:12:29;;;;;;;2.70;1.40;;;23.30;65.80;;;;;;4925934;29;20031;-76
2022/06/21 09:15:23;;;;;;;4.07;1.40;;;23.70;65.00;;;;;;4909096;29;20032;-75
2022/06/21 09:18:11;;;;;;;5.45;1.20;;;24.00;63.70;;;;;;4925549;29;20044;-75
2022/06/21 09:20:48;;;;;;;1.95;1.13;;;24.90;62.60;;;;;;4925604;29;20260;-75
2022/06/21 09:23:28;;;;;;;4.83;1.47;;;25.10;61.10;;;;;;4925729;29;20042;-76
2022/06/21 09:26:09;;;;;;;3.33;1.02;;;25.00;61.20;;;;;;4926227;29;20571;-76
2022/06/21 09:28:43;;;;;;;4.05;1.20;;;24.90;62.20;;;;;;4943916;29;20043;-75
2022/06/21 09:31:27;;;;;;;4.43;1.40;;;24.90;60.80;;;;;;4944055;29;20047;-76
2022/06/21 09:34:06;;;;;;;3.53;1.10;;;25.10;61.50;;;;;;4944709;29;20031;-77
2022/06/21 09:37:16;;;;;;;5.97;1.30;;;24.90;61.80;;;;;;4944078;29;20038;-77
2022/06/21 09:39:55;;;;;;;4.18;1.40;;;24.60;61.40;;;;;;4929639;29;20046;-76
2022/06/21 09:42:35;;;;;;;3.88;1.10;;;24.30;62.80;;;;;;4943763;29;20028;-76
2022/06/21 09:45:38;;;;;;;4.53;1.42;;;24.10;62.90;;;;;;4927965;29;20317;-76
2022/06/21 09:48:11;;;;;;;3.17;1.33;;;24.20;62.90;;;;;;4943542;29;20048;-76
2022/06/21 09:50:57;;;;;;;5.97;1.50;;;24.40;62.50;;;;;;4944246;29;20084;-76
2022/06/21 09:53:58;;;;;;;5.00;1.17;;;24.50;62.20;;;;;;4944894;29;20031;-76
2022/06/21 09:56:42;;;;;;;5.13;1.60;;;24.50;61.80;;;;;;4945441;29;20050;-77
2022/06/21 09:59:37;;;;;;;7.50;1.58;;;24.40;62.50;;;;;;4945448;29;20110;-74
2022/06/21 10:02:28;;;;;;;4.03;1.30;;;24.60;62.70;;;;;;4944487;29;20067;-76
2022/06/21 10:05:13;;;;;;;4.90;1.70;;;24.80;62.00;;;;;;4928805;29;20341;-76
2022/06/21 10:08:03;;;;;;;4.82;1.35;;;24.60;61.80;;;;;;4945289;29;20090;-77
2022/06/21 10:10:38;;;;;;;3.42;1.45;;;24.80;63.00;;;;;;4944791;29;20043;-76
2022/06/21 10:13:04;;;;;;;3.50;1.63;;;25.30;62.10;;;;;;4945285;29;20039;-76
2022/06/21 10:15:34;;;;;;;4.28;1.15;;;25.40;61.60;;;;;;4944015;29;20098;-75
2022/06/21 10:18:18;;;;;;;4.15;1.50;;;25.60;61.90;;;;;;4945225;29;20035;-76
2022/06/21 10:20:44;;;;;;;4.15;1.50;;;25.60;61.40;;;;;;4926687;29;20047;-75
2022/06/21 10:23:17;;;;;;;3.67;1.73;;;25.70;61.30;;;;;;4925578;29;20036;-75
2022/06/21 10:25:55;;;;;;;5.10;1.30;;;25.90;61.40;;;;;;4926030;29;20107;-76
2022/06/21 10:28:53;;;;;;;4.57;1.70;;;26.00;61.40;;;;;;4939499;29;20036;-77
2022/06/21 10:31:29;;;;;;;3.40;1.70;;;26.10;61.30;;;;;;4943696;29;20110;-75
2022/06/21 10:34:00;;;;;;;2.97;1.30;;;26.10;61.40;;;;;;4945931;29;20143;-76
2022/06/21 10:37:03;;;;;;;2.75;1.40;;;25.90;61.50;;;;;;4911884;29;20289;-76
2022/06/21 10:39:56;;;;;;;3.20;1.40;;;26.00;62.20;;;;;;4944745;29;20039;-76
2022/06/21 10:42:46;;;;;;;3.75;1.70;;;26.10;61.70;;;;;;4911702;29;20028;-75
2022/06/21 10:45:37;;;;;;;4.20;1.55;;;26.20;61.70;;;;;;4944804;29;20032;-77
2022/06/21 10:48:18;;;;;;;2.42;1.58;;;26.30;61.80;;;;;;4945335;29;20094;-76
2022/06/21 10:51:02;;;;;;;4.53;1.92;;;26.40;61.80;;;;;;4928087;29;20106;-77
2022/06/21 10:53:34;;;;;;;5.97;1.90;;;26.30;61.90;;;;;;4944712;29;20028;-77
2022/06/21 11:02:59;;;;;;;4.00;1.60;;;26.30;62.70;;;;;;4930589;29;20389;-77
2022/06/21 11:05:55;;;;;;;3.15;1.80;;;26.50;63.00;;;;;;4945922;29;20036;-77
2022/06/21 11:09:03;;;;;;;5.18;1.73;;;26.40;63.50;;;;;;4945364;29;20048;-77
2022/06/21 11:11:56;;;;;;;5.25;2.17;;;26.80;63.30;;;;;;4911494;29;20343;-78
2022/06/21 11:14:42;;;;;;;5.18;1.90;;;26.90;62.70;;;;;;4944777;29;20024;-77
2022/06/21 11:17:32;;;;;;;4.80;2.05;;;27.00;63.00;;;;;;4944353;29;20043;-77
2022/06/21 11:20:23;;;;;;;4.30;2.13;;;27.30;62.80;;;;;;4944855;29;20044;-77
2022/06/21 11:23:05;;;;;;;3.78;2.00;;;27.40;62.50;;;;;;4944682;29;20032;-76
2022/06/21 11:25:56;;;;;;;15.98;2.40;;;27.70;62.90;;;;;;4946479;29;20049;-77
2022/06/21 11:28:49;;;;;;;4.88;1.80;;;28.00;62.60;;;;;;4931835;29;20058;-76
2022/06/21 11:31:37;;;;;;;5.90;1.88;;;28.80;61.00;;;;;;4947212;28;20068;-74
2022/06/21 11:34:25;;;;;;;5.63;2.10;;;28.90;60.90;;;;;;4932980;29;20039;-75
2022/06/21 11:37:06;;;;;;;;;;;29.00;60.40;;;;;;4949887;29;20030;-75
2022/06/21 11:39:53;;;;;;;5.38;1.83;;;29.30;60.30;;;;;;4946931;29;19939;-76
2022/06/21 11:42:35;;;;;;;4.35;2.00;;;29.80;59.50;;;;;;4945097;29;20046;-76
2022/06/21 11:45:24;;;;;;;5.95;2.00;;;29.90;59.50;;;;;;4925202;29;20099;-77
2022/06/21 11:47:59;;;;;;;5.57;2.15;;;30.40;59.00;;;;;;4934899;29;20266;-76
2022/06/21 11:50:32;;;;;;;4.43;2.10;;;30.70;58.10;;;;;;4944311;29;20035;-78
2022/06/21 11:52:58;;;;;;;3.30;1.75;;;30.50;58.40;;;;;;4927369;29;20098;-75
2022/06/21 11:55:35;;;;;;;5.22;1.95;;;32.00;56.90;;;;;;4926310;29;20031;-76
2022/06/21 11:58:30;;;;;;;5.35;1.73;;;33.30;55.20;;;;;;4926988;29;20345;-77
2022/06/21 12:01:11;;;;;;;5.80;1.85;;;33.60;54.50;;;;;;4942683;29;20091;-76
2022/06/21 12:03:55;;;;;;;4.22;1.75;;;35.00;53.60;;;;;;4920709;29;20086;-76
2022/06/21 12:06:41;;;;;;;5.68;1.90;;;35.40;52.10;;;;;;4907379;29;20062;-77
2022/06/21 12:09:39;;;;;;;4.18;1.88;;;34.80;52.60;;;;;;4923830;29;20121;-76
2022/06/21 12:12:34;;;;;;;4.15;1.73;;;34.00;53.50;;;;;;4924859;29;20035;-77
2022/06/21 12:15:36;;;;;;;9.88;2.33;;;33.10;54.80;;;;;;4907752;29;20326;-77
2022/06/21 12:18:16;;;;;;;5.40;2.30;;;32.20;56.20;;;;;;4924130;29;20114;-78
2022/06/21 12:21:26;;;;;;;6.82;2.40;;;31.80;56.80;;;;;;4907326;29;20032;-78
2022/06/21 12:24:04;;;;;;;5.65;2.08;;;31.40;57.90;;;;;;4885092;29;20036;-76
2022/06/21 12:26:32;;;;;;;5.05;1.90;;;31.90;57.20;;;;;;4920686;29;20043;-77
2022/06/21 12:29:00;;;;;;;5.88;2.10;;;31.40;57.50;;;;;;4944369;29;20327;-76
2022/06/21 12:31:36;;;;;;;2.72;1.95;;;31.50;58.00;;;;;;4946215;29;20043;-77
2022/06/21 12:34:15;;;;;;;4.82;1.85;;;31.80;57.40;;;;;;4946639;29;20028;-76
2022/06/21 12:36:51;;;;;;;3.75;1.73;;;32.00;57.30;;;;;;4946055;29;20301;-76
2022/06/21 12:39:27;;;;;;;3.08;1.88;;;32.60;56.50;;;;;;4947017;29;20034;-78
2022/06/21 12:42:02;;;;;;;4.15;1.77;;;32.50;56.40;;;;;;4947072;29;20241;-78
2022/06/21 12:45:10;;;;;;;3.60;1.88;;;32.30;57.20;;;;;;4961739;29;20099;-77
2022/06/21 12:47:39;;;;;;;6.78;2.20;;;32.30;57.20;;;;;;4936556;29;20044;-76
2022/06/21 12:50:26;;;;;;;4.72;2.53;;;31.90;57.80;;;;;;4946698;29;20063;-77
2022/06/21 12:53:21;;;;;;;4.40;2.28;;;31.50;58.50;;;;;;4948092;29;20106;-76
2022/06/21 12:56:08;;;;;;;8.02;2.30;;;31.30;59.10;;;;;;4948268;29;20058;-75
2022/06/21 12:59:08;;;;;;;5.72;2.35;;;31.10;59.30;;;;;;4947046;29;20031;-76
2022/06/21 13:01:43;;;;;;;6.78;2.20;;;31.20;59.20;;;;;;4945290;29;20111;-76
2022/06/21 13:04:42;;;;;;;5.93;2.42;;;32.90;57.60;;;;;;4948003;29;20217;-75
2022/06/21 13:07:46;;;;;;;4.97;2.00;;;34.10;55.80;;;;;;4947427;29;20062;-77
2022/06/21 13:10:37;;;;;;;4.30;1.75;;;36.10;53.20;;;;;;4948237;29;20042;-77
2022/06/21 13:13:28;;;;;;;5.63;2.10;;;37.20;51.60;;;;;;4947725;29;20031;-77
2022/06/21 13:16:10;;;;;;;3.33;1.50;;;39.10;50.50;;;;;;4930011;29;20106;-77
2022/06/21 13:19:06;;;;;;;3.35;1.75;;;40.60;48.30;;;;;;4946277;29;20043;-78
2022/06/21 13:21:51;;;;;;;4.82;1.80;;;40.60;48.40;;;;;;4947303;29;20032;-77
2022/06/21 13:24:43;;;;;;;4.00;1.45;;;41.70;47.60;;;;;;4945866;29;20114;-78
2022/06/21 13:27:30;;;;;;;4.03;1.60;;;43.40;46.40;;;;;;4930570;29;20031;-78
2022/06/21 13:30:14;;;;;;;5.38;1.85;;;42.80;45.60;;;;;;4947078;29;20036;-77
2022/06/21 13:32:53;;;;;;;11.20;2.17;;;43.30;45.70;;;;;;4946127;29;20039;-76
2022/06/21 13:35:43;;;;;;;3.47;1.70;;;41.00;46.70;;;;;;4946910;29;20031;-76
2022/06/21 13:38:38;;;;;;;5.47;2.28;;;38.90;49.10;;;;;;4947361;29;20039;-76
2022/06/21 13:44:34;;;;;;;6.25;1.88;;;38.10;50.20;;;;;;4945648;29;20070;-77
2022/06/21 13:47:31;;;;;;;3.88;1.90;;;37.40;50.40;;;;;;4929109;29;20050;-77
2022/06/21 13:50:19;;;;;;;4.95;1.77;;;37.50;50.70;;;;;;4942874;29;20326;-78
2022/06/21 13:52:56;;;;;;;6.85;2.17;;;37.30;50.40;;;;;;4929920;29;20135;-77
2022/06/21 13:55:35;;;;;;;6.90;2.08;;;37.60;51.00;;;;;;4946929;29;20352;-78
2022/06/21 13:58:23;;;;;;;7.88;2.53;;;39.60;49.50;;;;;;4946029;29;20080;-77
2022/06/21 14:01:16;;;;;;;5.30;2.55;;;41.10;47.90;;;;;;4928321;29;20056;-76
2022/06/21 14:03:49;;;;;;;4.15;2.00;;;43.10;45.80;;;;;;4946190;29;20043;-77
2022/06/21 14:06:44;;;;;;;5.13;1.80;;;44.30;45.00;;;;;;4946302;29;20194;-77
2022/06/21 14:09:22;;;;;;;4.55;1.80;;;44.60;44.50;;;;;;4916731;29;20066;-77
2022/06/21 14:12:11;;;;;;;6.00;2.10;;;45.00;44.00;;;;;;4945984;29;20036;-76
2022/06/21 14:14:51;;;;;;;3.72;1.67;;;45.10;44.00;;;;;;4945789;29;20133;-76
2022/06/21 14:17:33;;;;;;;4.00;1.50;;;45.30;43.70;;;;;;4920429;29;20048;-76
2022/06/21 14:20:29;;;;;;;4.45;1.50;;;46.40;43.30;;;;;;4910455;29;20333;-77
2022/06/21 14:23:26;;;;;;;5.63;1.87;;;46.80;42.70;;;;;;4925848;29;20032;-76
2022/06/21 14:26:06;;;;;;;4.50;1.55;;;46.40;42.80;;;;;;4909703;29;20040;-77
2022/06/21 14:28:53;;;;;;;5.00;1.52;;;47.00;42.50;;;;;;4926543;29;20060;-76
2022/06/21 14:31:45;;;;;;;5.38;1.67;;;47.90;41.90;;;;;;4926470;29;20042;-78
2022/06/21 14:34:22;;;;;;;7.40;2.30;;;47.50;41.90;;;;;;4919260;29;20087;-78
2022/06/21 14:37:00;;;;;;;3.92;2.03;;;47.70;41.90;;;;;;4894326;29;20040;-77
2022/06/21 14:39:39;;;;;;;4.28;1.60;;;48.60;41.30;;;;;;4926426;29;20099;-78
2022/06/21 14:42:05;;;;;;;4.05;1.80;;;48.10;41.40;;;;;;4926549;29;20032;-77
2022/06/21 14:45:02;;;;;;;3.00;1.57;;;48.00;41.30;;;;;;4926174;29;20243;-77
2022/06/21 14:47:54;;;;;;;4.63;1.70;;;47.70;41.50;;;;;;4925827;29;20040;-77
2022/06/21 14:50:33;;;;;;;4.57;1.90;;;49.10;41.30;;;;;;4895074;29;20313;-77
2022/06/21 14:53:30;;;;;;;3.88;1.50;;;49.30;40.90;;;;;;4926688;29;20310;-77
2022/06/21 14:56:25;;;;;;;3.50;1.67;;;49.50;40.60;;;;;;4926814;29;20106;-76
2022/06/21 14:59:12;;;;;;;4.93;1.80;;;49.50;40.60;;;;;;4893888;29;20084;-77
2022/06/21 15:01:52;;;;;;;4.97;1.60;;;49.30;40.70;;;;;;4923109;29;20059;-77
2022/06/21 15:04:43;;;;;;;3.10;2.00;;;48.00;41.00;;;;;;4908028;29;20040;-77
2022/06/21 15:07:31;;;;;;;5.95;1.85;;;47.60;41.30;;;;;;4882707;29;20360;-78
2022/06/21 15:10:13;;;;;;;2.83;1.30;;;47.90;41.20;;;;;;4907472;29;20028;-78
2022/06/21 15:12:47;;;;;;;3.95;1.70;;;48.50;41.30;;;;;;4890678;29;20032;-78
2022/06/21 15:15:18;;;;;;;2.78;1.45;;;48.90;40.90;;;;;;4906719;29;20076;-77
2022/06/21 15:18:04;;;;;;;4.03;1.70;;;49.30;40.50;;;;;;4918444;29;20067;-78
2022/06/21 15:20:52;;;;;;;4.80;1.88;;;49.10;40.50;;;;;;4924835;29;20044;-78
2022/06/21 15:23:52;;;;;;;3.67;1.58;;;49.10;40.50;;;;;;4926541;29;20036;-77
2022/06/21 15:26:35;;;;;;;5.10;1.92;;;49.30;40.30;;;;;;4926502;29;20052;-77
2022/06/21 15:29:31;;;;;;;4.00;1.75;;;48.80;40.70;;;;;;4909826;29;20225;-78
2022/06/21 15:32:05;;;;;;;3.45;1.60;;;49.10;40.50;;;;;;4907804;29;20044;-76
2022/06/21 15:34:46;;;;;;;3.22;1.50;;;49.10;40.50;;;;;;4924561;29;20028;-79
2022/06/21 15:37:36;;;;;;;4.00;1.80;;;49.50;40.20;;;;;;4926584;29;20096;-78
2022/06/21 15:40:15;;;;;;;4.57;1.67;;;49.90;39.80;;;;;;4905278;29;20326;-77
2022/06/21 15:43:00;;;;;;;3.28;1.85;;;49.00;39.90;;;;;;4929172;29;20040;-76
2022/06/21 15:45:34;;;;;;;3.13;1.55;;;48.90;39.80;;;;;;4927784;29;20107;-77
2022/06/21 15:51:23;;;;;;;3.78;1.55;;;48.70;40.50;;;;;;4927146;29;20066;-78
2022/06/21 15:54:02;;;;;;;4.32;1.80;;;48.60;40.60;;;;;;4908808;29;20028;-78
2022/06/21 15:56:39;;;;;;;4.78;1.92;;;48.10;40.80;;;;;;4924893;29;20035;-78
2022/06/21 15:59:16;;;;;;;7.28;2.03;;;47.90;41.30;;;;;;4939159;29;20115;-78
2022/06/21 16:02:03;;;;;;;5.20;1.75;;;48.60;40.60;;;;;;4909408;29;20050;-78
2022/06/21 16:04:54;;;;;;;2.88;1.50;;;49.30;40.20;;;;;;4928107;29;20386;-77
2022/06/21 16:07:31;;;;;;;8.15;2.28;;;49.30;40.10;;;;;;4948730;29;20047;-76
2022/06/21 16:09:58;;;;;;;4.68;1.95;;;49.40;39.90;;;;;;4938023;29;20043;-78
2022/06/21 16:12:28;;;;;;;4.22;1.67;;;48.50;40.30;;;;;;4954480;29;20066;-78
2022/06/21 16:15:02;;;;;;;3.28;1.83;;;48.40;40.70;;;;;;4954528;29;20107;-79
2022/06/21 16:17:34;;;;;;;7.30;2.20;;;48.40;40.40;;;;;;4938425;29;20044;-78
2022/06/21 16:20:17;;;;;;;4.55;1.88;;;47.20;40.90;;;;;;4911819;29;20043;-79
2022/06/21 16:23:09;;;;;;;6.22;2.08;;;47.20;41.30;;;;;;4928450;29;20076;-77
2022/06/21 16:26:02;;;;;;;4.03;1.92;;;47.40;41.30;;;;;;4927365;29;20218;-77
2022/06/21 16:28:53;;;;;;;4.35;1.90;;;47.00;41.10;;;;;;4939011;29;20190;-78
2022/06/21 16:34:23;;;;;;;3.30;1.65;;;47.40;40.90;;;;;;4947544;29;20070;-78
2022/06/21 16:36:54;;;;;;;3.78;2.00;;;46.70;41.60;;;;;;4946972;29;20032;-77
2022/06/21 16:39:19;;;;;;;6.43;2.30;;;45.60;42.00;;;;;;4947397;29;20055;-77
2022/06/21 16:44:54;;;;;;;4.78;2.00;;;46.40;42.00;;;;;;4947025;29;20087;-77
2022/06/21 16:47:28;;;;;;;5.80;1.92;;;46.90;41.50;;;;;;4945598;29;20046;-78
2022/06/21 16:50:01;;;;;;;6.38;1.90;;;47.00;41.20;;;;;;4946659;29;20355;-77
2022/06/21 16:52:38;;;;;;;4.07;1.83;;;47.20;41.20;;;;;;4947158;29;20054;-78
2022/06/21 16:55:12;;;;;;;4.18;2.00;;;47.10;41.20;;;;;;4946406;29;20031;-78
2022/06/21 16:57:40;;;;;;;8.45;2.00;;;47.60;41.30;;;;;;4945592;29;20051;-79
2022/06/21 17:00:17;;;;;;;3.83;1.92;;;47.20;41.10;;;;;;4946602;29;20079;-78
2022/06/21 17:02:49;;;;;;;5.82;2.03;;;46.10;41.20;;;;;;4946168;29;20140;-77
2022/06/21 17:05:19;;;;;;;4.85;1.95;;;45.50;42.20;;;;;;4929652;29;20062;-79
2022/06/21 17:07:48;;;;;;;3.35;2.00;;;45.10;42.30;;;;;;4946237;29;20040;-78
2022/06/21 17:11:25;;;;;;;5.38;2.10;;;45.20;42.10;;;;;;4929905;29;20110;-78
2022/06/21 17:13:22;;;;;;;8.32;1.75;;;46.20;41.90;;;;;;4941111;29;20313;-79
2022/06/21 17:15:54;;;;;;;5.07;2.00;;;46.10;41.50;;;;;;4943360;29;20230;-79
2022/06/21 17:18:29;;;;;;;4.70;2.20;;;45.90;41.90;;;;;;4946869;29;20031;-81
2022/06/21 17:21:21;;;;;;;3.15;1.90;;;45.20;42.50;;;;;;4929375;29;20067;-80
2022/06/21 17:24:19;;;;;;;4.45;2.15;;;44.50;42.60;;;;;;4946210;29;20032;-80
2022/06/21 17:26:57;;;;;;;5.43;2.08;;;44.80;42.70;;;;;;4944891;29;20034;-79
2022/06/21 17:29:38;;;;;;;3.17;2.00;;;44.60;42.80;;;;;;4946414;29;20039;-79
2022/06/21 17:32:08;;;;;;;4.15;2.22;;;44.10;42.90;;;;;;4929494;29;20051;-79
2022/06/21 17:34:55;;;;;;;3.95;2.13;;;43.90;43.10;;;;;;4944997;29;20195;-79
2022/06/21 17:37:26;;;;;;;5.90;2.15;;;43.90;43.40;;;;;;4929856;29;20038;-79
2022/06/21 17:40:07;;;;;;;4.10;2.17;;;44.10;42.60;;;;;;4946115;29;20066;-81
2022/06/21 17:42:51;;;;;;;6.90;2.20;;;43.80;43.40;;;;;;4929675;29;20067;-80
2022/06/21 17:45:27;;;;;;;5.72;2.50;;;43.10;43.90;;;;;;4945949;29;20023;-80
2022/06/21 17:48:05;;;;;;;6.78;2.30;;;43.10;44.10;;;;;;4945848;29;20042;-78
2022/06/21 17:50:47;;;;;;;4.22;2.20;;;42.20;44.50;;;;;;4945221;29;20040;-80
2022/06/21 17:53:27;;;;;;;5.43;2.60;;;41.30;45.50;;;;;;4946461;29;20040;-79
2022/06/21 17:55:59;;;;;;;5.43;2.38;;;40.40;46.10;;;;;;4928469;29;20032;-79
2022/06/21 17:58:48;;;;;;;5.00;2.70;;;39.40;47.50;;;;;;4945976;29;20317;-79
2022/06/21 18:01:21;;;;;;;4.53;2.72;;;39.00;47.50;;;;;;4928450;29;20102;-79
2022/06/21 18:03:52;;;;;;;4.22;2.60;;;38.70;48.10;;;;;;4945633;29;20227;-78
2022/06/21 18:06:24;;;;;;;4.80;2.60;;;37.80;48.70;;;;;;4945051;29;20078;-78
2022/06/21 18:09:46;;;;;;;7.45;2.80;;;37.00;49.90;;;;;;4945449;29;20051;-81
2022/06/21 18:12:30;;;;;;;8.30;2.60;;;36.00;51.10;;;;;;4923451;29;20074;-80
2022/06/21 18:14:56;;;;;;;5.20;3.03;;;35.40;52.00;;;;;;4945561;29;20035;-80
2022/06/21 18:17:24;;;;;;;5.65;2.70;;;34.80;52.90;;;;;;4945289;29;20103;-79
2022/06/21 18:19:53;;;;;;;5.05;2.97;;;34.40;53.50;;;;;;4938702;29;20115;-79
2022/06/21 18:22:40;;;;;;;5.18;2.47;;;33.80;54.50;;;;;;4926000;29;20030;-79
2022/06/21 18:25:21;;;;;;;4.85;2.90;;;33.40;55.30;;;;;;4937023;29;20290;-77
2022/06/21 18:28:05;;;;;;;5.03;3.15;;;33.00;55.70;;;;;;4943334;29;20066;-77
2022/06/21 18:30:44;;;;;;;5.65;2.92;;;32.40;56.50;;;;;;4943904;29;20062;-77
2022/06/21 18:33:13;;;;;;;5.78;2.83;;;32.00;57.40;;;;;;4944304;29;20225;-78
2022/06/21 18:36:02;;;;;;;6.82;2.80;;;31.70;57.60;;;;;;4943875;29;20031;-78
2022/06/21 18:38:34;;;;;;;5.25;3.30;;;31.30;58.30;;;;;;4913871;29;20040;-78
2022/06/21 18:41:14;;;;;;;6.00;3.40;;;31.00;58.90;;;;;;4927612;29;20035;-78
2022/06/21 18:44:08;;;;;;;4.75;3.20;;;30.70;59.40;;;;;;4928458;29;20031;-78
2022/06/21 18:47:15;;;;;;;6.78;3.00;;;30.50;60.00;;;;;;4943576;29;20309;-78
2022/06/21 18:49:59;;;;;;;3.90;2.75;;;30.40;60.50;;;;;;4917066;29;20032;-78
2022/06/21 18:52:39;;;;;;;5.50;3.10;;;30.20;60.80;;;;;;4943936;29;20313;-82
2022/06/21 18:55:41;;;;;;;4.85;3.05;;;30.10;61.00;;;;;;4943835;29;20094;-78
2022/06/21 18:58:38;;;;;;;6.55;3.17;;;30.00;61.40;;;;;;4943607;29;20363;-77
2022/06/21 19:01:32;;;;;;;5.85;2.90;;;29.80;61.70;;;;;;4941958;29;20505;-77
2022/06/21 19:08:27;;;;;;;5.90;3.00;;;29.70;62.10;;;;;;4924747;29;20397;-79
2022/06/21 19:10:30;;;;;;;5.88;3.00;;;29.30;63.00;;;;;;4934290;29;20027;-78
2022/06/21 19:12:56;;;;;;;4.35;3.10;;;29.20;63.20;;;;;;4943578;29;20309;-78
2022/06/21 19:15:30;;;;;;;6.85;3.15;;;29.10;63.40;;;;;;4942906;29;20106;-78
2022/06/21 19:18:08;;;;;;;4.68;2.72;;;29.00;63.60;;;;;;4943330;29;20028;-78
2022/06/21 19:21:09;;;;;;;4.47;2.90;;;29.00;63.80;;;;;;4944068;29;20056;-78
2022/06/21 19:23:46;;;;;;;5.65;3.00;;;28.90;64.10;;;;;;4926920;29;20059;-78
2022/06/21 19:26:29;;;;;;;7.00;2.90;;;28.90;64.20;;;;;;4943503;29;20083;-77
2022/06/21 19:29:32;;;;;;;4.40;2.70;;;28.80;64.60;;;;;;4943658;29;20062;-78
2022/06/21 19:32:20;;;;;;;7.05;3.00;;;28.60;64.60;;;;;;4941948;29;20077;-78
2022/06/21 19:35:06;;;;;;;6.03;4.20;;;28.50;64.90;;;;;;4943311;29;20090;-79